sensor_id;sensor_type;location;lat;lon;timestamp;pressure;altitude;pressure_sealevel;temperature;humidity
76229;BME280;65021;53.174;18.160;2022-11-21T00:00:57;100284.60;;;-3.00;82.41
76229;BME280;65021;53.174;18.160;2022-11-21T00:03:24;100292.52;;;-3.03;82.53
76229;BME280;65021;53.174;18.160;2022-11-21T00:05:50;100287.05;;;-3.01;82.74
76229;BME280;65021;53.174;18.160;2022-11-21T00:08:19;100285.41;;;-2.98;82.92
76229;BME280;65021;53.174;18.160;2022-11-21T00:10:46;100283.50;;;-2.92;83.08
76229;BME280;65021;53.174;18.160;2022-11-21T00:13:17;100273.48;;;-2.84;83.08
76229;BME280;65021;53.174;18.160;2022-11-21T00:15:45;100273.23;;;-2.74;82.74
76229;BME280;65021;53.174;18.160;2022-11-21T00:18:12;100275.89;;;-2.67;82.66
76229;BME280;65021;53.174;18.160;2022-11-21T00:20:39;100278.32;;;-2.62;82.57
76229;BME280;65021;53.174;18.160;2022-11-21T00:23:06;100277.80;;;-2.58;82.48
76229;BME280;65021;53.174;18.160;2022-11-21T00:25:33;100273.84;;;-2.53;82.51
76229;BME280;65021;53.174;18.160;2022-11-21T00:28:00;100278.13;;;-2.54;82.35
76229;BME280;65021;53.174;18.160;2022-11-21T00:30:27;100271.99;;;-2.58;82.49
76229;BME280;65021;53.174;18.160;2022-11-21T00:32:53;100270.29;;;-2.60;82.50
76229;BME280;65021;53.174;18.160;2022-11-21T00:35:20;100269.52;;;-2.63;82.43
76229;BME280;65021;53.174;18.160;2022-11-21T00:37:47;100266.55;;;-2.72;82.34
76229;BME280;65021;53.174;18.160;2022-11-21T00:40:14;100272.31;;;-2.83;82.36
76229;BME280;65021;53.174;18.160;2022-11-21T00:42:41;100269.20;;;-2.94;82.33
76229;BME280;65021;53.174;18.160;2022-11-21T00:45:07;100270.71;;;-3.10;82.15
76229;BME280;65021;53.174;18.160;2022-11-21T00:47:34;100268.95;;;-3.22;82.31
76229;BME280;65021;53.174;18.160;2022-11-21T00:50:01;100273.23;;;-3.34;82.38
76229;BME280;65021;53.174;18.160;2022-11-21T00:52:27;100267.56;;;-3.45;82.40
76229;BME280;65021;53.174;18.160;2022-11-21T00:54:54;100265.92;;;-3.53;82.29
76229;BME280;65021;53.174;18.160;2022-11-21T00:57:21;100270.94;;;-3.57;82.14
76229;BME280;65021;53.174;18.160;2022-11-21T00:59:47;100274.56;;;-3.64;82.09
76229;BME280;65021;53.174;18.160;2022-11-21T01:02:14;100268.91;;;-3.70;82.08
76229;BME280;65021;53.174;18.160;2022-11-21T01:04:40;100264.95;;;-3.85;81.97
76229;BME280;65021;53.174;18.160;2022-11-21T01:07:07;100264.01;;;-4.01;82.16
76229;BME280;65021;53.174;18.160;2022-11-21T01:09:34;100264.49;;;-4.16;82.25
76229;BME280;65021;53.174;18.160;2022-11-21T01:12:00;100262.02;;;-4.38;82.02
76229;BME280;65021;53.174;18.160;2022-11-21T01:14:27;100258.14;;;-4.59;82.19
76229;BME280;65021;53.174;18.160;2022-11-21T01:16:54;100253.59;;;-4.76;82.40
76229;BME280;65021;53.174;18.160;2022-11-21T01:19:20;100266.81;;;-4.90;82.74
76229;BME280;65021;53.174;18.160;2022-11-21T01:21:47;100271.11;;;-5.01;82.86
76229;BME280;65021;53.174;18.160;2022-11-21T01:24:13;100267.27;;;-5.14;82.94
76229;BME280;65021;53.174;18.160;2022-11-21T01:26:40;100268.78;;;-5.24;83.11
76229;BME280;65021;53.174;18.160;2022-11-21T01:29:07;100277.38;;;-5.32;83.19
76229;BME280;65021;53.174;18.160;2022-11-21T01:31:34;100281.06;;;-5.38;83.43
76229;BME280;65021;53.174;18.160;2022-11-21T01:34:01;100287.21;;;-5.43;83.58
76229;BME280;65021;53.174;18.160;2022-11-21T01:36:32;100291.88;;;-5.50;83.56
76229;BME280;65021;53.174;18.160;2022-11-21T01:39:02;100300.96;;;-5.52;83.59
76229;BME280;65021;53.174;18.160;2022-11-21T01:41:40;100297.91;;;-5.49;83.45
76229;BME280;65021;53.174;18.160;2022-11-21T01:44:25;100287.17;;;-5.46;83.25
76229;BME280;65021;53.174;18.160;2022-11-21T01:46:52;100288.20;;;-5.44;83.28
76229;BME280;65021;53.174;18.160;2022-11-21T01:49:22;100289.59;;;-5.44;83.19
76229;BME280;65021;53.174;18.160;2022-11-21T02:00:11;100304.80;;;-5.58;83.54
76229;BME280;65021;53.174;18.160;2022-11-21T02:02:42;100303.49;;;-5.63;83.39
76229;BME280;65021;53.174;18.160;2022-11-21T02:05:15;100300.11;;;-5.67;83.47
76229;BME280;65021;53.174;18.160;2022-11-21T02:07:45;100305.02;;;-5.72;83.41
76229;BME280;65021;53.174;18.160;2022-11-21T02:10:13;100300.94;;;-5.78;83.43
76229;BME280;65021;53.174;18.160;2022-11-21T02:12:52;100303.84;;;-5.84;83.41
76229;BME280;65021;53.174;18.160;2022-11-21T02:15:23;100306.13;;;-5.88;83.47
76229;BME280;65021;53.174;18.160;2022-11-21T02:17:50;100302.98;;;-5.93;83.44
76229;BME280;65021;53.174;18.160;2022-11-21T02:20:27;100307.67;;;-5.97;83.58
76229;BME280;65021;53.174;18.160;2022-11-21T02:25:50;100310.59;;;-5.81;83.69
76229;BME280;65021;53.174;18.160;2022-11-21T02:28:19;100302.11;;;-5.72;83.57
76229;BME280;65021;53.174;18.160;2022-11-21T02:30:46;100299.62;;;-5.62;83.45
76229;BME280;65021;53.174;18.160;2022-11-21T02:33:12;100297.43;;;-5.53;83.45
76229;BME280;65021;53.174;18.160;2022-11-21T02:35:40;100294.23;;;-5.48;83.40
76229;BME280;65021;53.174;18.160;2022-11-21T02:38:20;100297.60;;;-5.46;83.44
76229;BME280;65021;53.174;18.160;2022-11-21T02:40:52;100298.77;;;-5.45;83.34
76229;BME280;65021;53.174;18.160;2022-11-21T02:43:27;100295.86;;;-5.48;83.48
76229;BME280;65021;53.174;18.160;2022-11-21T02:45:55;100300.91;;;-5.55;83.41
76229;BME280;65021;53.174;18.160;2022-11-21T02:48:21;100296.30;;;-5.63;83.32
76229;BME280;65021;53.174;18.160;2022-11-21T02:50:48;100297.83;;;-5.71;83.39
76229;BME280;65021;53.174;18.160;2022-11-21T02:53:19;100300.75;;;-5.80;83.41
76229;BME280;65021;53.174;18.160;2022-11-21T02:55:45;100299.27;;;-5.90;83.38
76229;BME280;65021;53.174;18.160;2022-11-21T02:58:13;100301.44;;;-5.99;83.53
76229;BME280;65021;53.174;18.160;2022-11-21T03:00:41;100299.60;;;-6.08;83.45
76229;BME280;65021;53.174;18.160;2022-11-21T03:03:08;100296.27;;;-6.16;83.56
76229;BME280;65021;53.174;18.160;2022-11-21T03:05:35;100297.25;;;-6.20;83.54
76229;BME280;65021;53.174;18.160;2022-11-21T03:08:03;100295.91;;;-6.18;83.57
76229;BME280;65021;53.174;18.160;2022-11-21T03:10:30;100292.77;;;-6.14;83.56
76229;BME280;65021;53.174;18.160;2022-11-21T03:12:56;100290.77;;;-6.10;83.46
76229;BME280;65021;53.174;18.160;2022-11-21T03:15:31;100291.60;;;-6.04;83.25
76229;BME280;65021;53.174;18.160;2022-11-21T03:17:58;100291.38;;;-6.00;83.06
76229;BME280;65021;53.174;18.160;2022-11-21T03:20:31;100286.66;;;-6.01;82.81
76229;BME280;65021;53.174;18.160;2022-11-21T03:22:59;100289.52;;;-6.03;82.72
76229;BME280;65021;53.174;18.160;2022-11-21T03:25:26;100289.80;;;-6.11;82.54
76229;BME280;65021;53.174;18.160;2022-11-21T03:27:53;100290.74;;;-6.22;82.66
76229;BME280;65021;53.174;18.160;2022-11-21T03:30:21;100294.66;;;-6.31;82.81
76229;BME280;65021;53.174;18.160;2022-11-21T03:32:48;100292.05;;;-6.42;82.58
76229;BME280;65021;53.174;18.160;2022-11-21T03:35:15;100295.79;;;-6.54;82.70
76229;BME280;65021;53.174;18.160;2022-11-21T03:37:42;100288.89;;;-6.67;82.70
76229;BME280;65021;53.174;18.160;2022-11-21T03:40:09;100295.27;;;-6.75;82.96
76229;BME280;65021;53.174;18.160;2022-11-21T03:42:36;100293.77;;;-6.78;83.19
76229;BME280;65021;53.174;18.160;2022-11-21T03:45:03;100287.83;;;-6.89;82.99
76229;BME280;65021;53.174;18.160;2022-11-21T03:47:29;100285.91;;;-7.03;83.03
76229;BME280;65021;53.174;18.160;2022-11-21T03:49:56;100283.67;;;-7.06;83.24
76229;BME280;65021;53.174;18.160;2022-11-21T03:52:23;100281.90;;;-7.02;83.28
76229;BME280;65021;53.174;18.160;2022-11-21T03:54:49;100281.73;;;-6.97;83.29
76229;BME280;65021;53.174;18.160;2022-11-21T03:57:16;100279.91;;;-7.00;82.89
76229;BME280;65021;53.174;18.160;2022-11-21T03:59:42;100283.17;;;-7.08;82.51
76229;BME280;65021;53.174;18.160;2022-11-21T04:02:09;100280.27;;;-7.15;82.47
76229;BME280;65021;53.174;18.160;2022-11-21T04:04:35;100269.98;;;-7.19;82.56
76229;BME280;65021;53.174;18.160;2022-11-21T04:07:02;100279.27;;;-7.18;82.69
76229;BME280;65021;53.174;18.160;2022-11-21T04:09:28;100279.09;;;-7.16;82.72
76229;BME280;65021;53.174;18.160;2022-11-21T04:11:55;100275.52;;;-7.14;82.79
76229;BME280;65021;53.174;18.160;2022-11-21T04:14:21;100275.45;;;-7.14;82.86
76229;BME280;65021;53.174;18.160;2022-11-21T04:16:48;100275.02;;;-7.13;82.85
76229;BME280;65021;53.174;18.160;2022-11-21T04:19:14;100269.65;;;-7.13;83.07
76229;BME280;65021;53.174;18.160;2022-11-21T04:21:41;100276.23;;;-7.13;83.06
76229;BME280;65021;53.174;18.160;2022-11-21T04:24:07;100279.94;;;-7.13;83.06
76229;BME280;65021;53.174;18.160;2022-11-21T04:26:34;100282.76;;;-7.13;83.36
76229;BME280;65021;53.174;18.160;2022-11-21T04:29:01;100277.06;;;-7.10;83.71
76229;BME280;65021;53.174;18.160;2022-11-21T04:31:27;100272.62;;;-7.09;83.75
76229;BME280;65021;53.174;18.160;2022-11-21T04:33:54;100278.13;;;-7.06;83.78
76229;BME280;65021;53.174;18.160;2022-11-21T04:36:20;100274.45;;;-7.04;83.92
76229;BME280;65021;53.174;18.160;2022-11-21T04:38:47;100275.20;;;-7.02;84.01
76229;BME280;65021;53.174;18.160;2022-11-21T04:41:13;100270.98;;;-6.96;83.95
76229;BME280;65021;53.174;18.160;2022-11-21T04:43:40;100265.22;;;-6.90;83.64
76229;BME280;65021;53.174;18.160;2022-11-21T04:46:06;100260.50;;;-6.88;83.58
76229;BME280;65021;53.174;18.160;2022-11-21T04:48:33;100255.65;;;-6.84;83.41
76229;BME280;65021;53.174;18.160;2022-11-21T04:50:59;100256.56;;;-6.83;83.43
76229;BME280;65021;53.174;18.160;2022-11-21T04:53:26;100258.04;;;-6.81;83.48
76229;BME280;65021;53.174;18.160;2022-11-21T04:55:52;100252.01;;;-6.82;83.45
76229;BME280;65021;53.174;18.160;2022-11-21T04:58:19;100257.02;;;-6.80;83.46
76229;BME280;65021;53.174;18.160;2022-11-21T05:00:45;100256.11;;;-6.76;83.35
76229;BME280;65021;53.174;18.160;2022-11-21T05:03:12;100260.07;;;-6.76;83.04
76229;BME280;65021;53.174;18.160;2022-11-21T05:05:39;100259.65;;;-6.77;82.99
76229;BME280;65021;53.174;18.160;2022-11-21T05:08:05;100258.42;;;-6.76;82.88
76229;BME280;65021;53.174;18.160;2022-11-21T05:10:32;100252.26;;;-6.79;83.07
76229;BME280;65021;53.174;18.160;2022-11-21T05:13:18;100251.96;;;-6.85;83.13
76229;BME280;65021;53.174;18.160;2022-11-21T05:15:48;100248.13;;;-6.94;83.08
76229;BME280;65021;53.174;18.160;2022-11-21T05:18:21;100243.73;;;-6.97;83.29
76229;BME280;65021;53.174;18.160;2022-11-21T05:20:47;100245.66;;;-6.96;83.50
76229;BME280;65021;53.174;18.160;2022-11-21T05:23:14;100248.92;;;-6.95;83.74
76229;BME280;65021;53.174;18.160;2022-11-21T05:25:40;100247.20;;;-6.88;83.80
76229;BME280;65021;53.174;18.160;2022-11-21T05:28:07;100236.80;;;-6.81;83.92
76229;BME280;65021;53.174;18.160;2022-11-21T05:30:33;100240.58;;;-6.74;84.10
76229;BME280;65021;53.174;18.160;2022-11-21T05:33:00;100239.31;;;-6.67;84.14
76229;BME280;65021;53.174;18.160;2022-11-21T05:35:26;100240.13;;;-6.58;84.22
76229;BME280;65021;53.174;18.160;2022-11-21T05:37:57;100241.45;;;-6.48;84.21
76229;BME280;65021;53.174;18.160;2022-11-21T05:40:24;100247.22;;;-6.30;84.10
76229;BME280;65021;53.174;18.160;2022-11-21T05:42:50;100232.27;;;-6.13;84.00
76229;BME280;65021;53.174;18.160;2022-11-21T05:45:36;100228.52;;;-5.95;83.90
76229;BME280;65021;53.174;18.160;2022-11-21T05:48:02;100232.71;;;-5.80;83.88
76229;BME280;65021;53.174;18.160;2022-11-21T05:50:35;100231.00;;;-5.65;83.78
76229;BME280;65021;53.174;18.160;2022-11-21T05:53:03;100230.46;;;-5.49;83.76
76229;BME280;65021;53.174;18.160;2022-11-21T05:55:32;100229.31;;;-5.37;83.73
76229;BME280;65021;53.174;18.160;2022-11-21T05:57:59;100221.95;;;-5.25;83.82
76229;BME280;65021;53.174;18.160;2022-11-21T06:00:27;100215.58;;;-5.16;83.81
76229;BME280;65021;53.174;18.160;2022-11-21T06:02:53;100216.06;;;-5.08;83.80
76229;BME280;65021;53.174;18.160;2022-11-21T06:05:39;100217.65;;;-5.03;83.81
76229;BME280;65021;53.174;18.160;2022-11-21T06:08:05;100216.44;;;-4.97;83.82
76229;BME280;65021;53.174;18.160;2022-11-21T06:10:32;100213.04;;;-4.92;83.75
76229;BME280;65021;53.174;18.160;2022-11-21T06:12:59;100207.40;;;-4.90;83.67
76229;BME280;65021;53.174;18.160;2022-11-21T06:15:27;100207.23;;;-4.88;83.68
76229;BME280;65021;53.174;18.160;2022-11-21T06:17:54;100212.94;;;-4.86;83.74
76229;BME280;65021;53.174;18.160;2022-11-21T06:20:20;100213.92;;;-4.84;83.66
76229;BME280;65021;53.174;18.160;2022-11-21T06:22:47;100217.58;;;-4.81;83.65
76229;BME280;65021;53.174;18.160;2022-11-21T06:25:13;100215.73;;;-4.77;83.68
76229;BME280;65021;53.174;18.160;2022-11-21T06:27:40;100213.77;;;-4.75;83.64
76229;BME280;65021;53.174;18.160;2022-11-21T06:30:07;100214.04;;;-4.76;83.60
76229;BME280;65021;53.174;18.160;2022-11-21T06:32:36;100216.74;;;-4.78;83.60
76229;BME280;65021;53.174;18.160;2022-11-21T06:35:03;100217.29;;;-4.78;83.62
76229;BME280;65021;53.174;18.160;2022-11-21T06:37:30;100220.08;;;-4.77;83.69
76229;BME280;65021;53.174;18.160;2022-11-21T06:39:57;100220.63;;;-4.75;83.81
76229;BME280;65021;53.174;18.160;2022-11-21T06:42:24;100221.11;;;-4.73;83.81
76229;BME280;65021;53.174;18.160;2022-11-21T06:44:50;100223.58;;;-4.71;83.80
76229;BME280;65021;53.174;18.160;2022-11-21T06:47:18;100222.45;;;-4.67;83.83
76229;BME280;65021;53.174;18.160;2022-11-21T06:49:45;100223.48;;;-4.56;83.80
76229;BME280;65021;53.174;18.160;2022-11-21T06:52:11;100217.14;;;-4.41;83.54
76229;BME280;65021;53.174;18.160;2022-11-21T06:54:38;100216.91;;;-4.29;83.42
76229;BME280;65021;53.174;18.160;2022-11-21T06:57:04;100213.77;;;-4.17;83.38
76229;BME280;65021;53.174;18.160;2022-11-21T06:59:31;100210.35;;;-4.09;83.25
76229;BME280;65021;53.174;18.160;2022-11-21T07:01:58;100208.64;;;-4.00;83.29
76229;BME280;65021;53.174;18.160;2022-11-21T07:04:25;100210.75;;;-3.92;83.44
76229;BME280;65021;53.174;18.160;2022-11-21T07:06:51;100210.66;;;-3.85;83.33
76229;BME280;65021;53.174;18.160;2022-11-21T07:09:18;100214.54;;;-3.81;83.25
76229;BME280;65021;53.174;18.160;2022-11-21T07:11:44;100212.84;;;-3.79;83.14
76229;BME280;65021;53.174;18.160;2022-11-21T07:14:11;100218.48;;;-3.77;83.11
76229;BME280;65021;53.174;18.160;2022-11-21T07:16:37;100222.95;;;-3.77;82.99
76229;BME280;65021;53.174;18.160;2022-11-21T07:19:04;100220.04;;;-3.75;83.13
76229;BME280;65021;53.174;18.160;2022-11-21T07:21:30;100224.80;;;-3.71;83.08
76229;BME280;65021;53.174;18.160;2022-11-21T07:23:57;100222.96;;;-3.67;83.06
76229;BME280;65021;53.174;18.160;2022-11-21T07:26:23;100224.97;;;-3.62;83.01
76229;BME280;65021;53.174;18.160;2022-11-21T07:28:50;100232.07;;;-3.56;82.98
76229;BME280;65021;53.174;18.160;2022-11-21T07:31:16;100232.40;;;-3.53;82.96
76229;BME280;65021;53.174;18.160;2022-11-21T07:33:43;100222.73;;;-3.51;82.95
76229;BME280;65021;53.174;18.160;2022-11-21T07:36:11;100215.67;;;-3.38;82.82
76229;BME280;65021;53.174;18.160;2022-11-21T07:38:38;100210.63;;;-3.20;82.53
76229;BME280;65021;53.174;18.160;2022-11-21T07:41:06;100204.79;;;-3.04;82.41
76229;BME280;65021;53.174;18.160;2022-11-21T07:43:33;100203.05;;;-2.87;82.36
76229;BME280;65021;53.174;18.160;2022-11-21T07:45:59;100200.15;;;-2.72;82.36
76229;BME280;65021;53.174;18.160;2022-11-21T07:48:26;100205.89;;;-2.60;82.22
76229;BME280;65021;53.174;18.160;2022-11-21T07:50:52;100203.41;;;-2.53;81.98
76229;BME280;65021;53.174;18.160;2022-11-21T07:53:19;100205.80;;;-2.45;81.98
76229;BME280;65021;53.174;18.160;2022-11-21T07:55:45;100209.30;;;-2.44;81.99
76229;BME280;65021;53.174;18.160;2022-11-21T07:58:16;100211.73;;;-2.48;81.81
76229;BME280;65021;53.174;18.160;2022-11-21T08:00:42;100209.86;;;-2.50;81.86
76229;BME280;65021;53.174;18.160;2022-11-21T08:03:10;100208.68;;;-2.53;81.83
76229;BME280;65021;53.174;18.160;2022-11-21T08:05:38;100209.48;;;-2.50;81.95
76229;BME280;65021;53.174;18.160;2022-11-21T08:08:05;100212.84;;;-2.48;81.94
76229;BME280;65021;53.174;18.160;2022-11-21T08:10:35;100216.32;;;-2.48;81.62
76229;BME280;65021;53.174;18.160;2022-11-21T08:13:02;100217.45;;;-2.44;81.59
76229;BME280;65021;53.174;18.160;2022-11-21T08:15:29;100217.98;;;-2.33;81.68
76229;BME280;65021;53.174;18.160;2022-11-21T08:17:55;100220.68;;;-2.23;81.51
76229;BME280;65021;53.174;18.160;2022-11-21T08:20:22;100219.59;;;-2.21;81.20
76229;BME280;65021;53.174;18.160;2022-11-21T08:22:49;100223.65;;;-2.20;81.42
76229;BME280;65021;53.174;18.160;2022-11-21T08:25:15;100226.08;;;-2.13;81.36
76229;BME280;65021;53.174;18.160;2022-11-21T08:27:42;100228.73;;;-2.12;81.23
76229;BME280;65021;53.174;18.160;2022-11-21T08:30:10;100220.69;;;-2.04;81.29
76229;BME280;65021;53.174;18.160;2022-11-21T08:32:37;100217.54;;;-1.94;81.25
76229;BME280;65021;53.174;18.160;2022-11-21T08:35:04;100217.67;;;-1.87;81.18
76229;BME280;65021;53.174;18.160;2022-11-21T08:37:30;100220.41;;;-1.84;80.80
76229;BME280;65021;53.174;18.160;2022-11-21T08:39:57;100220.84;;;-1.85;80.73
76229;BME280;65021;53.174;18.160;2022-11-21T08:42:24;100221.81;;;-1.77;80.96
76229;BME280;65021;53.174;18.160;2022-11-21T08:44:51;100220.84;;;-1.60;80.99
76229;BME280;65021;53.174;18.160;2022-11-21T08:47:18;100220.11;;;-1.42;80.95
76229;BME280;65021;53.174;18.160;2022-11-21T08:49:46;100219.47;;;-1.28;80.58
76229;BME280;65021;53.174;18.160;2022-11-21T08:52:16;100219.58;;;-1.18;80.54
76229;BME280;65021;53.174;18.160;2022-11-21T08:54:43;100219.59;;;-1.03;80.55
76229;BME280;65021;53.174;18.160;2022-11-21T08:57:11;100215.92;;;-0.92;80.39
76229;BME280;65021;53.174;18.160;2022-11-21T08:59:37;100215.40;;;-0.85;80.18
76229;BME280;65021;53.174;18.160;2022-11-21T09:02:04;100209.80;;;-0.81;79.88
76229;BME280;65021;53.174;18.160;2022-11-21T09:04:30;100209.35;;;-0.77;79.81
76229;BME280;65021;53.174;18.160;2022-11-21T09:06:57;100207.04;;;-0.78;79.71
76229;BME280;65021;53.174;18.160;2022-11-21T09:09:24;100209.88;;;-0.79;79.64
76229;BME280;65021;53.174;18.160;2022-11-21T09:11:51;100210.26;;;-0.77;79.20
76229;BME280;65021;53.174;18.160;2022-11-21T09:14:18;100208.50;;;-0.81;78.81
76229;BME280;65021;53.174;18.160;2022-11-21T09:17:02;100204.77;;;-0.77;79.57
76229;BME280;65021;53.174;18.160;2022-11-21T09:19:47;100204.45;;;-0.76;79.59
76229;BME280;65021;53.174;18.160;2022-11-21T09:22:14;100202.08;;;-0.78;79.68
76229;BME280;65021;53.174;18.160;2022-11-21T09:24:40;100200.79;;;-0.80;79.71
76229;BME280;65021;53.174;18.160;2022-11-21T09:27:07;100201.48;;;-0.77;79.48
76229;BME280;65021;53.174;18.160;2022-11-21T09:29:33;100199.98;;;-0.81;79.36
76229;BME280;65021;53.174;18.160;2022-11-21T09:32:00;100201.88;;;-0.80;79.51
76229;BME280;65021;53.174;18.160;2022-11-21T09:34:26;100200.52;;;-0.84;79.57
76229;BME280;65021;53.174;18.160;2022-11-21T09:36:53;100201.59;;;-0.85;79.65
76229;BME280;65021;53.174;18.160;2022-11-21T09:39:20;100197.43;;;-0.88;79.59
76229;BME280;65021;53.174;18.160;2022-11-21T09:47:31;100208.91;;;-1.03;79.44
76229;BME280;65021;53.174;18.160;2022-11-21T09:50:40;100207.98;;;-1.07;78.99
76229;BME280;65021;53.174;18.160;2022-11-21T09:53:20;100214.58;;;-1.12;79.60
76229;BME280;65021;53.174;18.160;2022-11-21T09:56:10;100211.45;;;-1.12;79.77
76229;BME280;65021;53.174;18.160;2022-11-21T09:58:43;100208.16;;;-1.07;79.83
76229;BME280;65021;53.174;18.160;2022-11-21T10:01:12;100215.01;;;-1.04;79.75
76229;BME280;65021;53.174;18.160;2022-11-21T10:07:05;100212.42;;;-1.01;79.32
76229;BME280;65021;53.174;18.160;2022-11-21T10:12:47;100201.54;;;-0.75;79.29
76229;BME280;65021;53.174;18.160;2022-11-21T10:26:41;100185.58;;;-0.54;79.07
76229;BME280;65021;53.174;18.160;2022-11-21T10:29:30;100184.06;;;-0.45;79.05
76229;BME280;65021;53.174;18.160;2022-11-21T10:32:12;100184.04;;;-0.38;78.90
76229;BME280;65021;53.174;18.160;2022-11-21T10:34:40;100176.52;;;-0.24;78.88
76229;BME280;65021;53.174;18.160;2022-11-21T10:37:18;100173.48;;;-0.15;78.55
76229;BME280;65021;53.174;18.160;2022-11-21T10:39:52;100171.73;;;-0.10;78.82
76229;BME280;65021;53.174;18.160;2022-11-21T10:42:37;100168.30;;;-0.03;78.93
76229;BME280;65021;53.174;18.160;2022-11-21T10:45:11;100169.98;;;0.06;78.66
76229;BME280;65021;53.174;18.160;2022-11-21T10:47:49;100165.16;;;-0.01;77.88
76229;BME280;65021;53.174;18.160;2022-11-21T10:56:13;100167.23;;;-0.17;77.94
76229;BME280;65021;53.174;18.160;2022-11-21T11:06:33;100148.95;;;-0.07;77.92
76229;BME280;65021;53.174;18.160;2022-11-21T11:09:00;100146.20;;;-0.09;78.38
76229;BME280;65021;53.174;18.160;2022-11-21T11:11:27;100146.47;;;-0.09;78.01
76229;BME280;65021;53.174;18.160;2022-11-21T11:13:59;100148.45;;;-0.07;77.98
76229;BME280;65021;53.174;18.160;2022-11-21T11:16:31;100148.14;;;-0.06;77.93
76229;BME280;65021;53.174;18.160;2022-11-21T11:19:17;100148.09;;;-0.07;77.74
76229;BME280;65021;53.174;18.160;2022-11-21T11:21:45;100142.23;;;-0.04;77.56
76229;BME280;65021;53.174;18.160;2022-11-21T11:29:21;100140.68;;;-0.14;78.11
76229;BME280;65021;53.174;18.160;2022-11-21T11:34:38;100139.27;;;-0.28;78.17
76229;BME280;65021;53.174;18.160;2022-11-21T11:37:12;100137.75;;;-0.34;78.44
76229;BME280;65021;53.174;18.160;2022-11-21T11:48:45;100129.21;;;-0.21;78.29
76229;BME280;65021;53.174;18.160;2022-11-21T11:51:24;100127.05;;;-0.19;78.41
76229;BME280;65021;53.174;18.160;2022-11-21T11:54:01;100121.85;;;-0.22;77.91
76229;BME280;65021;53.174;18.160;2022-11-21T11:56:35;100125.37;;;-0.27;78.00
76229;BME280;65021;53.174;18.160;2022-11-21T11:59:20;100126.60;;;-0.37;77.99
76229;BME280;65021;53.174;18.160;2022-11-21T12:02:05;100120.02;;;-0.45;77.85
76229;BME280;65021;53.174;18.160;2022-11-21T12:04:56;100127.45;;;-0.46;77.91
76229;BME280;65021;53.174;18.160;2022-11-21T12:07:30;100126.15;;;-0.52;77.95
76229;BME280;65021;53.174;18.160;2022-11-21T12:10:16;100128.08;;;-0.55;78.27
76229;BME280;65021;53.174;18.160;2022-11-21T12:12:51;100136.02;;;-0.64;78.42
76229;BME280;65021;53.174;18.160;2022-11-21T12:15:24;100133.56;;;-0.72;78.52
76229;BME280;65021;53.174;18.160;2022-11-21T12:20:57;100127.86;;;-0.81;78.62
76229;BME280;65021;53.174;18.160;2022-11-21T12:26:20;100131.97;;;-0.78;78.75
76229;BME280;65021;53.174;18.160;2022-11-21T12:36:54;100136.57;;;-0.92;79.01
76229;BME280;65021;53.174;18.160;2022-11-21T12:39:51;100138.24;;;-0.98;78.85
76229;BME280;65021;53.174;18.160;2022-11-21T12:48:24;100138.75;;;-1.00;78.82
76229;BME280;65021;53.174;18.160;2022-11-21T13:05:27;100158.29;;;-1.31;79.31
76229;BME280;65021;53.174;18.160;2022-11-21T13:08:30;100152.80;;;-1.30;79.42
76229;BME280;65021;53.174;18.160;2022-11-21T13:11:10;100151.65;;;-1.39;79.84
76229;BME280;65021;53.174;18.160;2022-11-21T13:14:06;100147.82;;;-1.47;80.06
76229;BME280;65021;53.174;18.160;2022-11-21T13:16:36;100147.70;;;-1.51;80.14
76229;BME280;65021;53.174;18.160;2022-11-21T13:21:48;100150.58;;;-1.43;79.97
76229;BME280;65021;53.174;18.160;2022-11-21T13:27:58;100152.95;;;-1.43;80.02
76229;BME280;65021;53.174;18.160;2022-11-21T13:30:19;100158.86;;;-1.52;80.18
76229;BME280;65021;53.174;18.160;2022-11-21T13:32:50;100151.98;;;-1.59;80.65
76229;BME280;65021;53.174;18.160;2022-11-21T13:38:05;100144.14;;;-1.59;80.59
76229;BME280;65021;53.174;18.160;2022-11-21T13:45:44;100139.81;;;-1.67;80.84
76229;BME280;65021;53.174;18.160;2022-11-21T13:50:51;100150.90;;;-1.73;81.09
76229;BME280;65021;53.174;18.160;2022-11-21T13:55:58;100159.30;;;-1.72;81.33
76229;BME280;65021;53.174;18.160;2022-11-21T14:04:17;100161.48;;;-1.85;81.43
76229;BME280;65021;53.174;18.160;2022-11-21T14:06:50;100166.06;;;-1.83;81.22
76229;BME280;65021;53.174;18.160;2022-11-21T14:09:20;100162.52;;;-1.82;81.46
76229;BME280;65021;53.174;18.160;2022-11-21T14:14:31;100166.67;;;-1.88;81.53
76229;BME280;65021;53.174;18.160;2022-11-21T14:17:12;100167.98;;;-1.91;81.78
76229;BME280;65021;53.174;18.160;2022-11-21T14:19:41;100165.95;;;-1.91;81.59
76229;BME280;65021;53.174;18.160;2022-11-21T14:22:27;100164.83;;;-1.86;81.43
76229;BME280;65021;53.174;18.160;2022-11-21T14:24:54;100165.61;;;-1.85;81.62
76229;BME280;65021;53.174;18.160;2022-11-21T14:27:31;100165.28;;;-1.88;81.83
76229;BME280;65021;53.174;18.160;2022-11-21T14:29:58;100168.30;;;-1.94;82.04
76229;BME280;65021;53.174;18.160;2022-11-21T14:32:30;100171.08;;;-1.99;82.06
76229;BME280;65021;53.174;18.160;2022-11-21T14:35:17;100172.68;;;-1.96;81.89
76229;BME280;65021;53.174;18.160;2022-11-21T14:37:44;100178.38;;;-1.87;81.76
76229;BME280;65021;53.174;18.160;2022-11-21T14:40:14;100177.51;;;-1.82;81.59
76229;BME280;65021;53.174;18.160;2022-11-21T14:42:45;100175.33;;;-1.82;81.84
76229;BME280;65021;53.174;18.160;2022-11-21T14:45:22;100176.10;;;-1.87;81.94
76229;BME280;65021;53.174;18.160;2022-11-21T14:47:51;100174.62;;;-1.89;81.91
76229;BME280;65021;53.174;18.160;2022-11-21T14:50:29;100181.63;;;-1.90;81.93
76229;BME280;65021;53.174;18.160;2022-11-21T14:52:58;100183.52;;;-1.92;81.80
76229;BME280;65021;53.174;18.160;2022-11-21T14:55:27;100181.48;;;-1.87;81.70
76229;BME280;65021;53.174;18.160;2022-11-21T14:57:57;100179.77;;;-1.82;81.62
76229;BME280;65021;53.174;18.160;2022-11-21T15:00:26;100173.20;;;-1.81;81.96